TimeEDT,TemperatureF,Dew PointF,Humidity,Sea Level PressureIn,VisibilityMPH,Wind Direction,Wind SpeedMPH,Gust SpeedMPH,PrecipitationIn,Events,Conditions,WindDirDegrees,DateUTC
12:15 AM,42.8,39.2,87,30.19,10.0,North,4.6,-,N/A,,Unknown,360,2011-11-05 04:15:00
12:35 AM,42.8,39.2,87,30.19,10.0,North,3.5,-,N/A,,Unknown,10,2011-11-05 04:35:00
12:55 AM,41.0,37.4,87,30.20,10.0,North,3.5,-,N/A,,Unknown,360,2011-11-05 04:55:00
1:15 AM,41.0,35.6,81,30.20,10.0,NNE,3.5,-,N/A,,Unknown,20,2011-11-05 05:15:00
1:35 AM,39.2,35.6,87,30.20,10.0,North,4.6,-,N/A,,Unknown,10,2011-11-05 05:35:00
1:55 AM,41.0,35.6,81,30.20,10.0,Calm,Calm,-,N/A,,Unknown,0,2011-11-05 05:55:00
2:15 AM,42.8,35.6,76,30.19,10.0,NE,3.5,-,N/A,,Unknown,40,2011-11-05 06:15:00
2:35 AM,42.8,35.6,76,30.19,10.0,Calm,Calm,-,N/A,,Unknown,0,2011-11-05 06:35:00
2:55 AM,39.2,33.8,81,30.19,10.0,NNE,3.5,-,N/A,,Unknown,20,2011-11-05 06:55:00
3:15 AM,37.4,33.8,87,30.19,10.0,Calm,Calm,-,N/A,,Unknown,0,2011-11-05 07:15:00
3:35 AM,39.2,33.8,81,30.18,10.0,Calm,Calm,-,N/A,,Unknown,0,2011-11-05 07:35:00
4:15 AM,39.2,32.0,75,30.19,10.0,Calm,Calm,-,N/A,,Unknown,0,2011-11-05 08:15:00
4:35 AM,37.4,32.0,81,30.19,10.0,Calm,Calm,-,N/A,,Unknown,0,2011-11-05 08:35:00
4:55 AM,39.2,32.0,75,30.19,10.0,Calm,Calm,-,N/A,,Unknown,0,2011-11-05 08:55:00
5:15 AM,37.4,30.2,75,30.20,10.0,North,4.6,-,N/A,,Unknown,360,2011-11-05 09:15:00
5:35 AM,37.4,32.0,81,30.21,10.0,Calm,Calm,-,N/A,,Unknown,0,2011-11-05 09:35:00
5:55 AM,37.4,30.2,75,30.22,10.0,NNE,3.5,-,N/A,,Unknown,30,2011-11-05 09:55:00
6:15 AM,37.4,30.2,75,30.23,10.0,Calm,Calm,-,N/A,,Unknown,0,2011-11-05 10:15:00
6:35 AM,37.4,30.2,75,30.23,10.0,NNE,3.5,-,N/A,,Unknown,30,2011-11-05 10:35:00
7:15 AM,37.4,30.2,75,30.24,10.0,Calm,Calm,-,N/A,,Unknown,0,2011-11-05 11:15:00
7:35 AM,33.8,28.4,81,30.25,10.0,Calm,Calm,-,N/A,,Unknown,0,2011-11-05 11:35:00
7:55 AM,35.6,30.2,81,30.26,10.0,Calm,Calm,-,N/A,,Unknown,0,2011-11-05 11:55:00
8:35 AM,35.6,30.2,81,30.27,10.0,Calm,Calm,-,N/A,,Unknown,0,2011-11-05 12:35:00
8:55 AM,35.6,30.2,81,30.28,10.0,Calm,Calm,-,N/A,,Unknown,0,2011-11-05 12:55:00
9:15 AM,37.4,30.2,75,30.29,10.0,SSE,4.6,-,N/A,,Unknown,160,2011-11-05 13:15:00
9:35 AM,44.6,33.8,66,30.30,10.0,Calm,Calm,-,N/A,,Unknown,0,2011-11-05 13:35:00
9:55 AM,46.4,33.8,62,30.30,10.0,SSE,3.5,-,N/A,,Unknown,150,2011-11-05 13:55:00
10:15 AM,48.2,33.8,58,30.30,10.0,SSE,3.5,-,N/A,,Unknown,160,2011-11-05 14:15:00
10:35 AM,48.2,33.8,58,30.30,10.0,SSE,3.5,-,N/A,,Unknown,160,2011-11-05 14:35:00
11:15 AM,53.6,26.6,35,30.30,10.0,South,6.9,-,N/A,,Unknown,170,2011-11-05 15:15:00
11:35 AM,53.6,26.6,35,30.30,10.0,Calm,Calm,-,N/A,,Unknown,0,2011-11-05 15:35:00
11:55 AM,53.6,28.4,38,30.30,10.0,SE,3.5,-,N/A,,Unknown,140,2011-11-05 15:55:00
12:15 PM,53.6,21.2,28,30.30,10.0,ESE,5.8,-,N/A,,Unknown,120,2011-11-05 16:15:00
12:35 PM,55.4,19.4,25,30.30,10.0,ESE,5.8,-,N/A,,Unknown,110,2011-11-05 16:35:00
12:55 PM,55.4,19.4,25,30.29,10.0,South,6.9,-,N/A,,Unknown,170,2011-11-05 16:55:00
1:15 PM,55.4,17.6,23,30.29,10.0,SE,6.9,-,N/A,,Unknown,130,2011-11-05 17:15:00
1:35 PM,55.4,17.6,23,30.29,10.0,SE,6.9,-,N/A,,Unknown,130,2011-11-05 17:35:00
1:55 PM,57.2,19.4,23,30.28,10.0,SE,4.6,-,N/A,,Unknown,130,2011-11-05 17:55:00
2:35 PM,59.0,17.6,20,30.27,10.0,East,4.6,-,N/A,,Unknown,100,2011-11-05 18:35:00
2:55 PM,59.0,17.6,20,30.27,10.0,East,5.8,-,N/A,,Unknown,100,2011-11-05 18:55:00
3:15 PM,60.8,17.6,19,30.27,10.0,East,5.8,-,N/A,,Unknown,100,2011-11-05 19:15:00
3:35 PM,60.8,17.6,19,30.27,10.0,SSE,4.6,-,N/A,,Unknown,160,2011-11-05 19:35:00
3:55 PM,60.8,17.6,19,30.27,10.0,ESE,3.5,-,N/A,,Unknown,110,2011-11-05 19:55:00
4:15 PM,60.8,15.8,17,30.27,10.0,Calm,Calm,-,N/A,,Unknown,0,2011-11-05 20:15:00
4:35 PM,60.8,15.8,17,30.27,10.0,SSE,4.6,-,N/A,,Unknown,150,2011-11-05 20:35:00
4:55 PM,60.8,15.8,17,30.27,10.0,SE,4.6,-,N/A,,Unknown,140,2011-11-05 20:55:00
5:15 PM,59.0,15.8,19,30.27,10.0,Calm,Calm,-,N/A,,Unknown,0,2011-11-05 21:15:00
5:35 PM,57.2,15.8,20,30.27,10.0,Calm,Calm,-,N/A,,Unknown,0,2011-11-05 21:35:00
5:55 PM,57.2,15.8,20,30.27,10.0,Calm,Calm,-,N/A,,Unknown,0,2011-11-05 21:55:00
6:15 PM,55.4,17.6,23,30.27,10.0,Calm,Calm,-,N/A,,Unknown,0,2011-11-05 22:15:00
6:35 PM,51.8,17.6,26,30.27,10.0,Calm,Calm,-,N/A,,Unknown,0,2011-11-05 22:35:00
6:55 PM,51.8,17.6,26,30.27,10.0,Calm,Calm,-,N/A,,Unknown,0,2011-11-05 22:55:00
7:15 PM,51.8,19.4,28,30.28,10.0,Calm,Calm,-,N/A,,Unknown,0,2011-11-05 23:15:00
7:35 PM,51.8,21.2,30,30.28,10.0,Calm,Calm,-,N/A,,Unknown,0,2011-11-05 23:35:00
7:55 PM,51.8,21.2,30,30.28,10.0,SE,3.5,-,N/A,,Unknown,140,2011-11-05 23:55:00
8:15 PM,50.0,23.0,35,30.28,10.0,Calm,Calm,-,N/A,,Unknown,0,2011-11-06 00:15:00
8:35 PM,48.2,21.2,34,30.28,10.0,SSE,4.6,-,N/A,,Unknown,150,2011-11-06 00:35:00
8:55 PM,48.2,19.4,32,30.28,10.0,SSE,6.9,-,N/A,,Unknown,160,2011-11-06 00:55:00
9:15 PM,48.2,17.6,30,30.28,10.0,SE,5.8,-,N/A,,Unknown,140,2011-11-06 01:15:00
9:35 PM,48.2,15.8,27,30.28,10.0,SSE,8.1,-,N/A,,Unknown,160,2011-11-06 01:35:00
9:55 PM,48.2,14.0,25,30.29,10.0,SSE,9.2,16.1,N/A,,Unknown,160,2011-11-06 01:55:00
10:15 PM,46.4,12.2,25,30.29,10.0,SSE,8.1,-,N/A,,Unknown,160,2011-11-06 02:15:00
10:35 PM,46.4,12.2,25,30.29,10.0,SSE,10.4,16.1,N/A,,Unknown,150,2011-11-06 02:35:00
10:55 PM,46.4,12.2,25,30.29,10.0,SSE,9.2,-,N/A,,Unknown,160,2011-11-06 02:55:00
11:15 PM,46.4,12.2,25,30.29,10.0,SSE,10.4,16.1,N/A,,Unknown,160,2011-11-06 03:15:00
11:35 PM,44.6,12.2,27,30.28,10.0,SSE,11.5,16.1,N/A,,Unknown,160,2011-11-06 03:35:00
11:55 PM,44.6,12.2,27,30.28,10.0,SSE,11.5,16.1,N/A,,Unknown,160,2011-11-06 03:55:00